sensor_id;sensor_type;location;lat;lon;timestamp;pressure;altitude;pressure_sealevel;temperature;humidity
18858;BME280;9558;50.178;8.370;2023-03-03T00:00:56;98517.56;;;0.64;76.26
18858;BME280;9558;50.178;8.370;2023-03-03T00:03:24;98518.81;;;0.59;76.58
18858;BME280;9558;50.178;8.370;2023-03-03T00:05:52;98524.91;;;0.56;76.43
18858;BME280;9558;50.178;8.370;2023-03-03T00:08:19;98518.19;;;0.55;76.19
18858;BME280;9558;50.178;8.370;2023-03-03T00:10:48;98525.00;;;0.55;76.01
18858;BME280;9558;50.178;8.370;2023-03-03T00:13:17;98518.97;;;0.56;77.12
18858;BME280;9558;50.178;8.370;2023-03-03T00:15:44;98528.38;;;0.55;76.75
18858;BME280;9558;50.178;8.370;2023-03-03T00:18:17;98527.56;;;0.55;76.62
18858;BME280;9558;50.178;8.370;2023-03-03T00:20:49;98532.66;;;0.55;76.56
18858;BME280;9558;50.178;8.370;2023-03-03T00:23:24;98536.09;;;0.54;77.14
18858;BME280;9558;50.178;8.370;2023-03-03T00:25:54;98538.56;;;0.55;77.08
18858;BME280;9558;50.178;8.370;2023-03-03T00:28:27;98543.97;;;0.50;76.90
18858;BME280;9558;50.178;8.370;2023-03-03T00:30:56;98543.13;;;0.50;77.28
18858;BME280;9558;50.178;8.370;2023-03-03T00:33:30;98548.53;;;0.45;77.53
18858;BME280;9558;50.178;8.370;2023-03-03T00:36:24;98551.50;;;0.39;78.00
18858;BME280;9558;50.178;8.370;2023-03-03T00:38:59;98553.50;;;0.34;77.82
18858;BME280;9558;50.178;8.370;2023-03-03T00:41:38;98547.72;;;0.32;78.59
18858;BME280;9558;50.178;8.370;2023-03-03T00:44:30;98551.16;;;0.31;78.11
18858;BME280;9558;50.178;8.370;2023-03-03T00:47:02;98547.72;;;0.32;78.84
18858;BME280;9558;50.178;8.370;2023-03-03T00:49:38;98552.19;;;0.28;79.12
18858;BME280;9558;50.178;8.370;2023-03-03T00:52:10;98544.84;;;0.24;79.96
18858;BME280;9558;50.178;8.370;2023-03-03T00:54:38;98552.78;;;0.19;78.93
18858;BME280;9558;50.178;8.370;2023-03-03T00:57:06;98558.09;;;0.16;80.63
18858;BME280;9558;50.178;8.370;2023-03-03T00:59:33;98554.59;;;0.17;79.34
18858;BME280;9558;50.178;8.370;2023-03-03T01:01:59;98560.53;;;0.17;79.83
18858;BME280;9558;50.178;8.370;2023-03-03T01:04:26;98560.53;;;0.17;79.78
18858;BME280;9558;50.178;8.370;2023-03-03T01:06:52;98552.91;;;0.17;80.43
18858;BME280;9558;50.178;8.370;2023-03-03T01:09:19;98554.22;;;0.10;79.71
18858;BME280;9558;50.178;8.370;2023-03-03T01:11:45;98549.81;;;0.12;82.01
18858;BME280;9558;50.178;8.370;2023-03-03T01:14:13;98551.94;;;0.06;80.65
18858;BME280;9558;50.178;8.370;2023-03-03T01:16:40;98561.31;;;0.05;80.73
18858;BME280;9558;50.178;8.370;2023-03-03T01:19:06;98556.44;;;0.02;80.60
18858;BME280;9558;50.178;8.370;2023-03-03T01:21:33;98551.53;;;-0.01;82.52
18858;BME280;9558;50.178;8.370;2023-03-03T01:23:59;98553.97;;;0.01;81.20
18858;BME280;9558;50.178;8.370;2023-03-03T01:26:26;98549.28;;;-0.06;81.84
18858;BME280;9558;50.178;8.370;2023-03-03T01:28:52;98550.31;;;-0.08;81.56
18858;BME280;9558;50.178;8.370;2023-03-03T01:31:20;98545.22;;;-0.08;81.93
18858;BME280;9558;50.178;8.370;2023-03-03T01:33:47;98550.66;;;-0.14;81.97
18858;BME280;9558;50.178;8.370;2023-03-03T01:36:13;98549.88;;;-0.15;82.02
18858;BME280;9558;50.178;8.370;2023-03-03T01:38:40;98549.25;;;-0.19;81.48
18858;BME280;9558;50.178;8.370;2023-03-03T01:41:07;98549.63;;;-0.25;83.09
18858;BME280;9558;50.178;8.370;2023-03-03T01:43:34;98546.38;;;-0.27;82.69
18858;BME280;9558;50.178;8.370;2023-03-03T01:46:30;98544.03;;;-0.30;81.97
18858;BME280;9558;50.178;8.370;2023-03-03T01:49:00;98544.31;;;-0.35;82.29
18858;BME280;9558;50.178;8.370;2023-03-03T01:51:30;98553.66;;;-0.35;82.67
18858;BME280;9558;50.178;8.370;2023-03-03T01:53:58;98541.06;;;-0.37;82.75
18858;BME280;9558;50.178;8.370;2023-03-03T01:56:27;98536.97;;;-0.39;82.53
18858;BME280;9558;50.178;8.370;2023-03-03T01:58:58;98540.63;;;-0.43;82.63
18858;BME280;9558;50.178;8.370;2023-03-03T02:01:28;98542.66;;;-0.48;82.91
18858;BME280;9558;50.178;8.370;2023-03-03T02:03:56;98539.19;;;-0.47;83.65
18858;BME280;9558;50.178;8.370;2023-03-03T02:06:26;98536.13;;;-0.53;83.81
18858;BME280;9558;50.178;8.370;2023-03-03T02:08:58;98531.22;;;-0.56;84.29
18858;BME280;9558;50.178;8.370;2023-03-03T02:11:25;98538.13;;;-0.58;83.65
18858;BME280;9558;50.178;8.370;2023-03-03T02:13:52;98530.41;;;-0.56;85.60
18858;BME280;9558;50.178;8.370;2023-03-03T02:16:19;98531.34;;;-0.57;83.91
18858;BME280;9558;50.178;8.370;2023-03-03T02:18:47;98524.50;;;-0.57;84.09
18858;BME280;9558;50.178;8.370;2023-03-03T02:21:15;98528.97;;;-0.60;83.78
18858;BME280;9558;50.178;8.370;2023-03-03T02:23:49;98531.41;;;-0.59;84.25
18858;BME280;9558;50.178;8.370;2023-03-03T02:26:20;98540.16;;;-0.63;84.29
18858;BME280;9558;50.178;8.370;2023-03-03T02:28:48;98534.53;;;-0.68;84.95
18858;BME280;9558;50.178;8.370;2023-03-03T02:31:18;98540.50;;;-0.69;83.76
18858;BME280;9558;50.178;8.370;2023-03-03T02:33:47;98543.34;;;-0.74;84.99
18858;BME280;9558;50.178;8.370;2023-03-03T02:36:16;98539.91;;;-0.73;84.29
18858;BME280;9558;50.178;8.370;2023-03-03T02:38:47;98551.78;;;-0.73;84.61
18858;BME280;9558;50.178;8.370;2023-03-03T02:41:23;98553.78;;;-0.78;85.58
18858;BME280;9558;50.178;8.370;2023-03-03T02:43:55;98551.25;;;-0.78;84.86
18858;BME280;9558;50.178;8.370;2023-03-03T02:46:22;98554.69;;;-0.79;84.95
18858;BME280;9558;50.178;8.370;2023-03-03T02:48:48;98549.72;;;-0.81;85.12
18858;BME280;9558;50.178;8.370;2023-03-03T02:51:15;98551.44;;;-0.81;85.04
18858;BME280;9558;50.178;8.370;2023-03-03T02:53:41;98549.81;;;-0.82;86.04
18858;BME280;9558;50.178;8.370;2023-03-03T02:56:08;98547.97;;;-0.80;85.37
18858;BME280;9558;50.178;8.370;2023-03-03T02:58:36;98548.06;;;-0.82;87.61
18858;BME280;9558;50.178;8.370;2023-03-03T03:01:03;98547.38;;;-0.84;90.43
18858;BME280;9558;50.178;8.370;2023-03-03T03:03:30;98544.72;;;-0.82;86.14
18858;BME280;9558;50.178;8.370;2023-03-03T03:05:56;98541.44;;;-0.84;85.70
18858;BME280;9558;50.178;8.370;2023-03-03T03:08:23;98548.25;;;-0.85;86.02
18858;BME280;9558;50.178;8.370;2023-03-03T03:10:50;98537.38;;;-0.87;87.52
18858;BME280;9558;50.178;8.370;2023-03-03T03:13:16;98551.50;;;-0.83;86.50
18858;BME280;9558;50.178;8.370;2023-03-03T03:15:45;98549.16;;;-0.86;86.65
18858;BME280;9558;50.178;8.370;2023-03-03T03:18:12;98545.53;;;-0.82;86.94
18858;BME280;9558;50.178;8.370;2023-03-03T03:20:38;98544.91;;;-0.85;86.64
18858;BME280;9558;50.178;8.370;2023-03-03T03:23:06;98546.72;;;-0.88;87.34
18858;BME280;9558;50.178;8.370;2023-03-03T03:25:33;98548.53;;;-0.90;87.88
18858;BME280;9558;50.178;8.370;2023-03-03T03:28:01;98544.38;;;-0.91;87.25
18858;BME280;9558;50.178;8.370;2023-03-03T03:30:27;98541.81;;;-0.91;87.42
18858;BME280;9558;50.178;8.370;2023-03-03T03:32:55;98538.03;;;-0.98;90.10
18858;BME280;9558;50.178;8.370;2023-03-03T03:35:21;98547.91;;;-0.93;87.75
18858;BME280;9558;50.178;8.370;2023-03-03T03:37:48;98546.34;;;-0.96;88.25
18858;BME280;9558;50.178;8.370;2023-03-03T03:40:14;98559.25;;;-0.99;87.93
18858;BME280;9558;50.178;8.370;2023-03-03T03:42:41;98559.25;;;-0.99;88.28
18858;BME280;9558;50.178;8.370;2023-03-03T03:45:08;98552.56;;;-1.00;89.46
18858;BME280;9558;50.178;8.370;2023-03-03T03:47:35;98561.88;;;-1.00;88.09
18858;BME280;9558;50.178;8.370;2023-03-03T03:50:03;98559.44;;;-1.02;90.14
18858;BME280;9558;50.178;8.370;2023-03-03T03:52:30;98557.81;;;-1.03;88.17
18858;BME280;9558;50.178;8.370;2023-03-03T03:54:56;98561.28;;;-1.04;88.76
18858;BME280;9558;50.178;8.370;2023-03-03T03:57:22;98555.25;;;-1.03;89.02
18858;BME280;9558;50.178;8.370;2023-03-03T03:59:49;98559.44;;;-1.02;90.26
18858;BME280;9558;50.178;8.370;2023-03-03T04:02:15;98555.91;;;-0.99;89.01
18858;BME280;9558;50.178;8.370;2023-03-03T04:04:42;98558.91;;;-0.93;89.31
18858;BME280;9558;50.178;8.370;2023-03-03T04:07:10;98555.28;;;-0.89;90.24
18858;BME280;9558;50.178;8.370;2023-03-03T04:09:36;98554.00;;;-0.81;90.92
18858;BME280;9558;50.178;8.370;2023-03-03T04:12:03;98549.22;;;-0.73;91.99
18858;BME280;9558;50.178;8.370;2023-03-03T04:14:30;98559.03;;;-0.67;92.46
18858;BME280;9558;50.178;8.370;2023-03-03T04:16:56;98562.09;;;-0.62;93.53
18858;BME280;9558;50.178;8.370;2023-03-03T04:19:23;98564.19;;;-0.54;93.06
18858;BME280;9558;50.178;8.370;2023-03-03T04:21:50;98563.00;;;-0.48;92.75
18858;BME280;9558;50.178;8.370;2023-03-03T04:24:18;98568.59;;;-0.43;93.09
18858;BME280;9558;50.178;8.370;2023-03-03T04:26:44;98563.59;;;-0.45;92.38
18858;BME280;9558;50.178;8.370;2023-03-03T04:29:12;98562.59;;;-0.42;93.12
18858;BME280;9558;50.178;8.370;2023-03-03T04:31:38;98557.31;;;-0.39;92.84
18858;BME280;9558;50.178;8.370;2023-03-03T04:34:05;98557.31;;;-0.39;94.43
18858;BME280;9558;50.178;8.370;2023-03-03T04:36:31;98558.75;;;-0.35;92.34
18858;BME280;9558;50.178;8.370;2023-03-03T04:38:58;98563.66;;;-0.32;92.35
18858;BME280;9558;50.178;8.370;2023-03-03T04:41:26;98554.31;;;-0.31;91.93
18858;BME280;9558;50.178;8.370;2023-03-03T04:43:52;98561.09;;;-0.32;91.93
18858;BME280;9558;50.178;8.370;2023-03-03T04:46:19;98557.66;;;-0.31;91.77
18858;BME280;9558;50.178;8.370;2023-03-03T04:48:45;98553.28;;;-0.29;92.30
18858;BME280;9558;50.178;8.370;2023-03-03T04:51:12;98554.38;;;-0.33;92.74
18858;BME280;9558;50.178;8.370;2023-03-03T04:53:40;98550.03;;;-0.31;92.13
18858;BME280;9558;50.178;8.370;2023-03-03T04:56:07;98551.84;;;-0.33;92.16
18858;BME280;9558;50.178;8.370;2023-03-03T04:58:35;98551.31;;;-0.38;92.83
18858;BME280;9558;50.178;8.370;2023-03-03T05:01:01;98546.25;;;-0.38;91.53
18858;BME280;9558;50.178;8.370;2023-03-03T05:03:28;98552.44;;;-0.42;91.38
18858;BME280;9558;50.178;8.370;2023-03-03T05:05:54;98546.81;;;-0.47;91.51
18858;BME280;9558;50.178;8.370;2023-03-03T05:08:21;98559.91;;;-0.54;91.27
18858;BME280;9558;50.178;8.370;2023-03-03T05:10:50;98566.00;;;-0.56;90.86
18858;BME280;9558;50.178;8.370;2023-03-03T05:13:17;98567.91;;;-0.60;91.48
18858;BME280;9558;50.178;8.370;2023-03-03T05:15:49;98569.91;;;-0.65;90.92
18858;BME280;9558;50.178;8.370;2023-03-03T05:18:17;98569.38;;;-0.70;90.96
18858;BME280;9558;50.178;8.370;2023-03-03T05:20:43;98565.13;;;-0.70;90.99
18858;BME280;9558;50.178;8.370;2023-03-03T05:23:10;98567.41;;;-0.79;91.83
18858;BME280;9558;50.178;8.370;2023-03-03T05:25:36;98568.31;;;-0.80;92.41
18858;BME280;9558;50.178;8.370;2023-03-03T05:28:03;98566.69;;;-0.81;92.84
18858;BME280;9558;50.178;8.370;2023-03-03T05:30:29;98573.38;;;-0.80;93.11
18858;BME280;9558;50.178;8.370;2023-03-03T05:32:57;98583.34;;;-0.77;95.17
18858;BME280;9558;50.178;8.370;2023-03-03T05:35:24;98583.91;;;-0.72;95.12
18858;BME280;9558;50.178;8.370;2023-03-03T05:37:51;98581.19;;;-0.69;95.70
18858;BME280;9558;50.178;8.370;2023-03-03T05:40:18;98584.97;;;-0.62;96.88
18858;BME280;9558;50.178;8.370;2023-03-03T05:42:44;98587.16;;;-0.56;97.01
18858;BME280;9558;50.178;8.370;2023-03-03T05:45:11;98585.13;;;-0.50;97.21
18858;BME280;9558;50.178;8.370;2023-03-03T05:47:38;98580.03;;;-0.50;97.23
18858;BME280;9558;50.178;8.370;2023-03-03T05:50:06;98580.69;;;-0.47;97.07
18858;BME280;9558;50.178;8.370;2023-03-03T05:52:33;98584.84;;;-0.46;97.28
18858;BME280;9558;50.178;8.370;2023-03-03T05:55:00;98588.91;;;-0.43;97.11
18858;BME280;9558;50.178;8.370;2023-03-03T05:57:26;98594.75;;;-0.41;97.19
18858;BME280;9558;50.178;8.370;2023-03-03T05:59:53;98590.47;;;-0.41;97.21
18858;BME280;9558;50.178;8.370;2023-03-03T06:02:19;98595.56;;;-0.41;97.20
18858;BME280;9558;50.178;8.370;2023-03-03T06:04:46;98594.75;;;-0.41;97.39
18858;BME280;9558;50.178;8.370;2023-03-03T06:07:14;98594.09;;;-0.45;97.70
18858;BME280;9558;50.178;8.370;2023-03-03T06:09:40;98593.31;;;-0.45;97.91
18858;BME280;9558;50.178;8.370;2023-03-03T06:12:07;98599.38;;;-0.48;97.24
18858;BME280;9558;50.178;8.370;2023-03-03T06:14:33;98596.94;;;-0.49;99.46
18858;BME280;9558;50.178;8.370;2023-03-03T06:17:00;98610.56;;;-0.50;97.25
18858;BME280;9558;50.178;8.370;2023-03-03T06:19:27;98620.53;;;-0.47;97.53
18858;BME280;9558;50.178;8.370;2023-03-03T06:21:53;98612.91;;;-0.47;97.82
18858;BME280;9558;50.178;8.370;2023-03-03T06:24:21;98623.25;;;-0.50;100.00
18858;BME280;9558;50.178;8.370;2023-03-03T06:26:49;98624.81;;;-0.48;98.61
18858;BME280;9558;50.178;8.370;2023-03-03T06:29:16;98625.63;;;-0.47;97.99
18858;BME280;9558;50.178;8.370;2023-03-03T06:31:42;98624.63;;;-0.45;98.21
18858;BME280;9558;50.178;8.370;2023-03-03T06:34:09;98632.88;;;-0.41;98.54
18858;BME280;9558;50.178;8.370;2023-03-03T06:36:35;98631.97;;;-0.40;99.20
18858;BME280;9558;50.178;8.370;2023-03-03T06:39:02;98636.88;;;-0.37;98.88
18858;BME280;9558;50.178;8.370;2023-03-03T06:41:30;98636.03;;;-0.38;99.17
18858;BME280;9558;50.178;8.370;2023-03-03T06:43:57;98631.41;;;-0.31;99.07
18858;BME280;9558;50.178;8.370;2023-03-03T06:46:24;98643.22;;;-0.30;100.00
18858;BME280;9558;50.178;8.370;2023-03-03T06:48:51;98642.19;;;-0.27;100.00
18858;BME280;9558;50.178;8.370;2023-03-03T06:51:22;98641.84;;;-0.21;98.80
18858;BME280;9558;50.178;8.370;2023-03-03T06:53:53;98646.72;;;-0.18;100.00
18858;BME280;9558;50.178;8.370;2023-03-03T06:56:21;98655.72;;;-0.12;98.89
18858;BME280;9558;50.178;8.370;2023-03-03T06:58:52;98653.66;;;-0.07;98.59
18858;BME280;9558;50.178;8.370;2023-03-03T07:01:19;98669.19;;;0.03;98.64
18858;BME280;9558;50.178;8.370;2023-03-03T07:03:46;98666.97;;;0.11;98.52
18858;BME280;9558;50.178;8.370;2023-03-03T07:06:20;98670.47;;;0.23;98.23
18858;BME280;9558;50.178;8.370;2023-03-03T07:08:47;98677.44;;;0.33;98.10
18858;BME280;9558;50.178;8.370;2023-03-03T07:11:17;98672.78;;;0.40;98.75
18858;BME280;9558;50.178;8.370;2023-03-03T07:13:47;98675.03;;;0.45;98.05
18858;BME280;9558;50.178;8.370;2023-03-03T07:16:16;98684.22;;;0.47;98.12
18858;BME280;9558;50.178;8.370;2023-03-03T07:18:48;98685.66;;;0.51;98.52
18858;BME280;9558;50.178;8.370;2023-03-03T07:21:18;98696.25;;;0.58;97.40
18858;BME280;9558;50.178;8.370;2023-03-03T07:23:47;98697.38;;;0.67;97.50
18858;BME280;9558;50.178;8.370;2023-03-03T07:26:16;98691.91;;;0.73;97.05
18858;BME280;9558;50.178;8.370;2023-03-03T07:28:45;98692.19;;;0.81;96.73
18858;BME280;9558;50.178;8.370;2023-03-03T07:31:25;98704.44;;;0.89;96.64
18858;BME280;9558;50.178;8.370;2023-03-03T07:33:53;98701.59;;;0.94;95.42
18858;BME280;9558;50.178;8.370;2023-03-03T07:36:25;98705.78;;;0.95;95.72
18858;BME280;9558;50.178;8.370;2023-03-03T07:38:52;98715.88;;;0.96;95.52
18858;BME280;9558;50.178;8.370;2023-03-03T07:41:20;98711.38;;;1.00;95.57
18858;BME280;9558;50.178;8.370;2023-03-03T07:43:50;98719.66;;;1.16;95.64
18858;BME280;9558;50.178;8.370;2023-03-03T07:46:27;98713.44;;;1.46;94.40
18858;BME280;9558;50.178;8.370;2023-03-03T07:48:55;98708.41;;;1.70;93.31
18858;BME280;9558;50.178;8.370;2023-03-03T07:51:24;98712.50;;;2.21;91.35
18858;BME280;9558;50.178;8.370;2023-03-03T07:53:53;98711.94;;;2.42;90.24
18858;BME280;9558;50.178;8.370;2023-03-03T07:56:33;98729.84;;;2.53;89.66
18858;BME280;9558;50.178;8.370;2023-03-03T07:59:02;98738.72;;;2.61;89.71
18858;BME280;9558;50.178;8.370;2023-03-03T08:01:39;98738.19;;;2.80;87.86
18858;BME280;9558;50.178;8.370;2023-03-03T08:04:19;98737.50;;;3.58;86.41
18858;BME280;9558;50.178;8.370;2023-03-03T08:06:49;98731.25;;;4.29;84.24
18858;BME280;9558;50.178;8.370;2023-03-03T08:09:43;98733.19;;;5.11;82.02
18858;BME280;9558;50.178;8.370;2023-03-03T08:12:36;98736.91;;;5.90;78.75
18858;BME280;9558;50.178;8.370;2023-03-03T08:15:15;98739.75;;;6.67;76.09
18858;BME280;9558;50.178;8.370;2023-03-03T08:17:44;98754.44;;;7.33;72.21
18858;BME280;9558;50.178;8.370;2023-03-03T08:20:41;98749.34;;;7.89;67.23
18858;BME280;9558;50.178;8.370;2023-03-03T08:23:08;98744.88;;;8.55;68.27
18858;BME280;9558;50.178;8.370;2023-03-03T08:25:35;98744.91;;;8.99;64.43
18858;BME280;9558;50.178;8.370;2023-03-03T08:28:02;98751.94;;;9.41;64.29
18858;BME280;9558;50.178;8.370;2023-03-03T08:30:29;98756.69;;;9.80;59.84
18858;BME280;9558;50.178;8.370;2023-03-03T08:32:57;98749.84;;;10.22;62.06
18858;BME280;9558;50.178;8.370;2023-03-03T08:35:24;98749.28;;;10.61;60.81
18858;BME280;9558;50.178;8.370;2023-03-03T08:37:50;98758.19;;;10.83;56.91
18858;BME280;9558;50.178;8.370;2023-03-03T08:40:17;98755.25;;;11.19;57.15
18858;BME280;9558;50.178;8.370;2023-03-03T08:42:44;98760.03;;;11.47;57.26
18858;BME280;9558;50.178;8.370;2023-03-03T08:45:10;98763.91;;;11.59;54.84
18858;BME280;9558;50.178;8.370;2023-03-03T08:47:37;98765.59;;;11.84;56.07
18858;BME280;9558;50.178;8.370;2023-03-03T08:50:06;98759.56;;;12.00;54.96
18858;BME280;9558;50.178;8.370;2023-03-03T08:52:32;98758.56;;;12.09;53.38
18858;BME280;9558;50.178;8.370;2023-03-03T08:54:59;98760.28;;;12.17;53.53
18858;BME280;9558;50.178;8.370;2023-03-03T08:57:26;98766.66;;;12.06;51.25
18858;BME280;9558;50.178;8.370;2023-03-03T08:59:52;98770.41;;;12.03;53.02
18858;BME280;9558;50.178;8.370;2023-03-03T09:02:19;98772.59;;;11.75;50.81
18858;BME280;9558;50.178;8.370;2023-03-03T09:04:46;98768.63;;;11.48;53.40
18858;BME280;9558;50.178;8.370;2023-03-03T09:07:14;98773.56;;;11.10;51.80
18858;BME280;9558;50.178;8.370;2023-03-03T09:09:40;98770.66;;;10.88;54.32
18858;BME280;9558;50.178;8.370;2023-03-03T09:12:15;98771.91;;;10.51;54.30
18858;BME280;9558;50.178;8.370;2023-03-03T09:14:42;98771.16;;;10.16;54.89
18858;BME280;9558;50.178;8.370;2023-03-03T09:17:21;98777.72;;;9.59;54.58
18858;BME280;9558;50.178;8.370;2023-03-03T09:19:49;98772.84;;;9.22;55.95
18858;BME280;9558;50.178;8.370;2023-03-03T09:22:18;98768.69;;;8.85;57.20
18858;BME280;9558;50.178;8.370;2023-03-03T09:24:46;98774.97;;;8.46;58.13
18858;BME280;9558;50.178;8.370;2023-03-03T09:27:18;98771.97;;;8.13;59.15
18858;BME280;9558;50.178;8.370;2023-03-03T09:29:46;98769.75;;;7.72;59.84
18858;BME280;9558;50.178;8.370;2023-03-03T09:32:21;98768.91;;;7.34;61.17
18858;BME280;9558;50.178;8.370;2023-03-03T09:34:49;98776.69;;;6.95;61.93
18858;BME280;9558;50.178;8.370;2023-03-03T09:37:20;98779.97;;;6.68;63.20
18858;BME280;9558;50.178;8.370;2023-03-03T09:39:49;98782.66;;;6.47;64.75
18858;BME280;9558;50.178;8.370;2023-03-03T09:42:28;98777.22;;;6.30;65.50
18858;BME280;9558;50.178;8.370;2023-03-03T09:48:18;98777.28;;;5.99;66.37
18858;BME280;9558;50.178;8.370;2023-03-03T09:50:57;98778.13;;;5.79;68.12
18858;BME280;9558;50.178;8.370;2023-03-03T09:53:41;98782.97;;;5.72;68.69
18858;BME280;9558;50.178;8.370;2023-03-03T09:56:16;98792.38;;;5.62;68.19
18858;BME280;9558;50.178;8.370;2023-03-03T09:58:55;98788.56;;;5.56;69.71
18858;BME280;9558;50.178;8.370;2023-03-03T10:01:49;98778.78;;;5.50;69.86
18858;BME280;9558;50.178;8.370;2023-03-03T10:04:28;98785.81;;;5.48;71.51
18858;BME280;9558;50.178;8.370;2023-03-03T10:07:18;98793.66;;;5.46;71.17
18858;BME280;9558;50.178;8.370;2023-03-03T10:10:10;98780.22;;;5.43;70.80
18858;BME280;9558;50.178;8.370;2023-03-03T10:12:47;98781.75;;;5.45;70.97
18858;BME280;9558;50.178;8.370;2023-03-03T10:15:28;98792.00;;;5.45;71.11
18858;BME280;9558;50.178;8.370;2023-03-03T10:18:01;98790.00;;;5.49;70.96
18858;BME280;9558;50.178;8.370;2023-03-03T10:20:37;98795.81;;;5.51;72.06
18858;BME280;9558;50.178;8.370;2023-03-03T10:23:17;98796.00;;;5.59;71.80
18858;BME280;9558;50.178;8.370;2023-03-03T10:25:52;98805.34;;;5.60;71.82
18858;BME280;9558;50.178;8.370;2023-03-03T10:28:26;98809.97;;;5.66;71.23
18858;BME280;9558;50.178;8.370;2023-03-03T10:31:02;98815.22;;;5.65;70.72
18858;BME280;9558;50.178;8.370;2023-03-03T10:33:36;98815.72;;;5.59;70.48
18858;BME280;9558;50.178;8.370;2023-03-03T10:36:38;98819.31;;;5.46;71.60
18858;BME280;9558;50.178;8.370;2023-03-03T10:39:19;98825.91;;;5.39;71.38
18858;BME280;9558;50.178;8.370;2023-03-03T10:42:09;98828.22;;;5.42;71.49
18858;BME280;9558;50.178;8.370;2023-03-03T10:44:49;98819.56;;;5.43;71.95
18858;BME280;9558;50.178;8.370;2023-03-03T10:47:44;98824.72;;;5.43;71.51
18858;BME280;9558;50.178;8.370;2023-03-03T10:50:20;98827.16;;;5.45;72.63
18858;BME280;9558;50.178;8.370;2023-03-03T10:52:55;98822.69;;;5.47;72.07
18858;BME280;9558;50.178;8.370;2023-03-03T10:55:35;98818.25;;;5.49;71.68
18858;BME280;9558;50.178;8.370;2023-03-03T10:58:34;98819.84;;;5.50;72.87
18858;BME280;9558;50.178;8.370;2023-03-03T11:01:10;98822.75;;;5.57;71.21
18858;BME280;9558;50.178;8.370;2023-03-03T11:03:52;98822.09;;;5.64;72.01
18858;BME280;9558;50.178;8.370;2023-03-03T11:06:24;98817.53;;;5.68;71.81
18858;BME280;9558;50.178;8.370;2023-03-03T11:08:54;98812.13;;;5.71;72.01
18858;BME280;9558;50.178;8.370;2023-03-03T11:11:30;98818.25;;;5.80;71.99
18858;BME280;9558;50.178;8.370;2023-03-03T11:14:07;98806.78;;;5.84;71.76
18858;BME280;9558;50.178;8.370;2023-03-03T11:16:46;98808.84;;;5.90;71.40
18858;BME280;9558;50.178;8.370;2023-03-03T11:19:29;98812.91;;;5.93;71.42
18858;BME280;9558;50.178;8.370;2023-03-03T11:22:09;98825.81;;;6.02;71.34
18858;BME280;9558;50.178;8.370;2023-03-03T11:24:45;98807.56;;;6.05;71.04
18858;BME280;9558;50.178;8.370;2023-03-03T11:27:32;98815.72;;;6.11;71.40
18858;BME280;9558;50.178;8.370;2023-03-03T11:30:27;98816.38;;;6.13;70.83
18858;BME280;9558;50.178;8.370;2023-03-03T11:33:01;98812.88;;;6.14;71.07
18858;BME280;9558;50.178;8.370;2023-03-03T11:35:36;98805.84;;;6.16;71.04
18858;BME280;9558;50.178;8.370;2023-03-03T11:38:13;98806.53;;;6.18;70.51
18858;BME280;9558;50.178;8.370;2023-03-03T11:40:46;98806.28;;;6.21;70.53
18858;BME280;9558;50.178;8.370;2023-03-03T11:43:17;98808.31;;;6.27;70.26
18858;BME280;9558;50.178;8.370;2023-03-03T11:45:51;98799.25;;;6.33;70.37
18858;BME280;9558;50.178;8.370;2023-03-03T11:48:30;98804.25;;;6.34;70.25
18858;BME280;9558;50.178;8.370;2023-03-03T11:51:02;98792.09;;;6.36;69.63
18858;BME280;9558;50.178;8.370;2023-03-03T11:53:39;98794.69;;;6.36;69.11
18858;BME280;9558;50.178;8.370;2023-03-03T11:56:20;98791.16;;;6.37;69.38
18858;BME280;9558;50.178;8.370;2023-03-03T11:58:53;98783.47;;;6.37;68.64
18858;BME280;9558;50.178;8.370;2023-03-03T12:01:29;98793.47;;;6.40;69.22
18858;BME280;9558;50.178;8.370;2023-03-03T12:04:00;98768.16;;;6.46;69.73
18858;BME280;9558;50.178;8.370;2023-03-03T12:06:33;98771.81;;;6.53;69.34
18858;BME280;9558;50.178;8.370;2023-03-03T12:09:10;98774.53;;;6.51;68.70
18858;BME280;9558;50.178;8.370;2023-03-03T12:11:46;98756.38;;;6.53;68.60
18858;BME280;9558;50.178;8.370;2023-03-03T12:14:24;98769.38;;;6.51;67.77
18858;BME280;9558;50.178;8.370;2023-03-03T12:16:56;98758.03;;;6.54;68.20
18858;BME280;9558;50.178;8.370;2023-03-03T12:19:31;98766.94;;;6.50;67.87
18858;BME280;9558;50.178;8.370;2023-03-03T12:22:15;98758.28;;;6.51;67.92
18858;BME280;9558;50.178;8.370;2023-03-03T12:27:49;98756.13;;;6.56;68.01
18858;BME280;9558;50.178;8.370;2023-03-03T12:30:32;98758.31;;;6.61;68.11
18858;BME280;9558;50.178;8.370;2023-03-03T12:33:14;98743.66;;;6.61;68.03
18858;BME280;9558;50.178;8.370;2023-03-03T12:35:48;98751.13;;;6.64;68.33
18858;BME280;9558;50.178;8.370;2023-03-03T12:38:24;98749.25;;;6.66;67.87
18858;BME280;9558;50.178;8.370;2023-03-03T12:40:59;98753.69;;;6.64;66.60
18858;BME280;9558;50.178;8.370;2023-03-03T12:43:42;98745.84;;;6.66;67.18
18858;BME280;9558;50.178;8.370;2023-03-03T12:46:18;98734.47;;;6.68;67.13
18858;BME280;9558;50.178;8.370;2023-03-03T12:48:47;98739.59;;;6.68;67.04
18858;BME280;9558;50.178;8.370;2023-03-03T12:51:24;98738.13;;;6.66;66.02
18858;BME280;9558;50.178;8.370;2023-03-03T12:54:08;98739.59;;;6.68;67.64
18858;BME280;9558;50.178;8.370;2023-03-03T12:56:43;98737.59;;;6.72;67.25
18858;BME280;9558;50.178;8.370;2023-03-03T12:59:15;98738.81;;;6.78;67.42
18858;BME280;9558;50.178;8.370;2023-03-03T13:01:58;98734.31;;;6.80;67.12
18858;BME280;9558;50.178;8.370;2023-03-03T13:04:34;98732.97;;;6.85;66.66
18858;BME280;9558;50.178;8.370;2023-03-03T13:07:06;98729.97;;;6.90;65.93
18858;BME280;9558;50.178;8.370;2023-03-03T13:09:44;98723.47;;;6.96;65.94
18858;BME280;9558;50.178;8.370;2023-03-03T13:12:26;98727.94;;;7.03;66.44
18858;BME280;9558;50.178;8.370;2023-03-03T13:15:02;98727.38;;;7.09;66.42
18858;BME280;9558;50.178;8.370;2023-03-03T13:17:34;98721.13;;;7.22;66.60
18858;BME280;9558;50.178;8.370;2023-03-03T13:20:13;98709.69;;;7.34;66.41
18858;BME280;9558;50.178;8.370;2023-03-03T13:22:46;98718.09;;;7.36;65.06
18858;BME280;9558;50.178;8.370;2023-03-03T13:25:30;98715.34;;;7.48;65.50
18858;BME280;9558;50.178;8.370;2023-03-03T13:28:01;98708.97;;;7.52;64.13
18858;BME280;9558;50.178;8.370;2023-03-03T13:30:33;98700.38;;;7.61;64.75
18858;BME280;9558;50.178;8.370;2023-03-03T13:33:06;98709.28;;;7.67;64.37
18858;BME280;9558;50.178;8.370;2023-03-03T13:35:41;98705.47;;;7.71;64.33
18858;BME280;9558;50.178;8.370;2023-03-03T13:38:11;98698.66;;;7.79;64.57
18858;BME280;9558;50.178;8.370;2023-03-03T13:40:42;98707.88;;;7.82;62.88
18858;BME280;9558;50.178;8.370;2023-03-03T13:43:14;98700.88;;;7.92;63.90
18858;BME280;9558;50.178;8.370;2023-03-03T13:45:50;98702.06;;;7.98;63.44